Azure — ZCEE2 — position and weather

sailwx.info

Track history (hours):
 
Tides and Currents Weather Stations Pressure Air Temp Water Temp Dewpoint Dewpoint Depression Visibility Wind Speed Wind Dir Waves Ship Positions

Azure

Last reported at 2016-Jun-29 14:33 UTC. Time now 2016-Jun-29 16:34 UTC.
Position N 62°22' W 003°58'.

Length 289 m; draft 8.6 m.

Type: Passenger vessel. MMSI: 310610000.

Date/timePositionNaut miles runAvg speedWind from/ knotsBaromVisibWave heightAir tempDewpointWater temp
2016-Jun-29 14:33N 62°22' W 003°58'1110.9
2016-Jun-29 13:33N 62°29' W 004°15'1110.7
2016-Jun-29 12:33N 62°37' W 004°32'1110.7
2016-Jun-29 11:33N 62°44' W 004°49'1010.3
2016-Jun-29 10:33N 62°51' W 005°06'1110.6
2016-Jun-29 09:33N 62°58' W 005°23'1110.8
2016-Jun-29 08:34N 63°05' W 005°41'1010.2
2016-Jun-29 07:33N 63°12' W 005°58'1010.2
2016-Jun-29 06:33N 63°19' W 006°15'1111.1
2016-Jun-29 05:33N 63°26' W 006°33'3112.2
2016-Jun-29 03:00N 63°48' W 007°24'26811.2 140 / 25999.510.8 2.011.0 9.010.0
2016-Jun-28 03:00N 66°36' W 015°42'   040 / 21998.510.8 1.5 8.0 6.9 8.0
2016-Jun-24 04:00N 63°36' W 022°30'   210 / 181015.210.8 0.5 9.5 6.310.0
2016-Jun-21 21:33N 55°47' W 006°57'1615.5
2016-Jun-21 20:33N 55°36' W 006°37'1616.5
2016-Jun-21 19:34N 55°26' W 006°15'1716.8
2016-Jun-21 18:34N 55°15' W 005°52'2019.6
2016-Jun-21 17:34N 54°57' W 005°38'1716.4
2016-Jun-21 16:33N 54°41' W 005°47'6 0.5
2016-Jun-21 04:10N 54°37' W 005°54'1 1.8
2016-Jun-21 03:33N 54°38' W 005°53'8 8.0
2016-Jun-21 02:33N 54°43' W 005°41'1111.1
2016-Jun-21 01:33N 54°40' W 005°23'1414.3
2016-Jun-21 00:33N 54°26' W 005°15'1413.8
2016-Jun-20 23:33N 54°12' W 005°14'1414.4
2016-Jun-20 22:34N 53°58' W 005°17'8319.5
2016-Jun-20 18:19N 52°36' W 005°34'1520.0
2016-Jun-20 17:33N 52°21' W 005°37'1918.7
2016-Jun-20 16:33N 52°02' W 005°42'1817.8
2016-Jun-20 15:33N 51°45' W 005°49'1527.3
2016-Jun-20 15:00N 51°30' W 005°54'2113.8 270 / 201013.510.8 0.516.014.315.0
2016-Jun-20 13:30N 51°09' W 005°53'1717.9
2016-Jun-20 12:32N 50°52' W 005°54'1818.1
2016-Jun-20 11:33N 50°34' W 005°53'1717.3
2016-Jun-20 10:34N 50°17' W 005°55'1817.4
2016-Jun-20 09:33N 49°60' W 005°54'1614.5
2016-Jun-20 08:28N 49°50' W 005°34'1516.0
2016-Jun-20 07:30N 49°51' W 005°11'1516.1
2016-Jun-20 06:33N 49°54' W 004°47'1212.0
2016-Jun-20 05:33N 49°57' W 004°29'1211.7
2016-Jun-20 04:33N 49°59' W 004°12'1212.1
2016-Jun-20 03:33N 50°02' W 003°53'1313.0
2016-Jun-20 02:33N 50°05' W 003°34'1414.0
2016-Jun-20 01:34N 50°08' W 003°12'1514.5
2016-Jun-20 00:33N 50°12' W 002°50'1414.3
2016-Jun-19 23:33N 50°16' W 002°29'1526.2
2016-Jun-19 23:00N 50°18' W 002°06'11 7.9 210 / 301019.1 5.4 14.014.014.0
2016-Jun-19 21:33N 50°23' W 001°50'1311.1
2016-Jun-19 20:23N 50°25' W 001°30'910.4
2016-Jun-19 19:33N 50°28' W 001°17'1010.2
2016-Jun-19 18:33N 50°34' W 001°04'9 8.7
2016-Jun-19 17:34N 50°42' W 000°58'1414.4
2016-Jun-19 16:34N 50°49' W 001°18'7 7.2
2016-Jun-19 15:33N 50°54' W 001°26'0 0.0
2016-Jun-19 14:33N 50°54' W 001°26'  
Track history (hours):
 
Tides and Currents Weather Stations Pressure Air Temp Water Temp Dewpoint Dewpoint Depression Visibility Wind Speed Wind Dir Waves Ship Positions

Azure

Last reported at 2016-Jun-29 14:33 UTC. Time now 2016-Jun-29 16:34 UTC.
Position N 62°22' W 003°58'.

Length 289 m; draft 8.6 m.

Type: Passenger vessel. MMSI: 310610000.

Date/timePositionNaut miles runAvg speedWind from/ knotsBaromVisibWave heightAir tempDewpointWater temp
2016-Jun-29 14:33N 62°22' W 003°58'1110.9
2016-Jun-29 13:33N 62°29' W 004°15'1110.7
2016-Jun-29 12:33N 62°37' W 004°32'1110.7
2016-Jun-29 11:33N 62°44' W 004°49'1010.3
2016-Jun-29 10:33N 62°51' W 005°06'1110.6
2016-Jun-29 09:33N 62°58' W 005°23'1110.8
2016-Jun-29 08:34N 63°05' W 005°41'1010.2
2016-Jun-29 07:33N 63°12' W 005°58'1010.2
2016-Jun-29 06:33N 63°19' W 006°15'1111.1
2016-Jun-29 05:33N 63°26' W 006°33'3112.2
2016-Jun-29 03:00N 63°48' W 007°24'26811.2 140 / 25999.510.8 2.011.0 9.010.0
2016-Jun-28 03:00N 66°36' W 015°42'   040 / 21998.510.8 1.5 8.0 6.9 8.0
2016-Jun-24 04:00N 63°36' W 022°30'   210 / 181015.210.8 0.5 9.5 6.310.0
2016-Jun-21 21:33N 55°47' W 006°57'1615.5
2016-Jun-21 20:33N 55°36' W 006°37'1616.5
2016-Jun-21 19:34N 55°26' W 006°15'1716.8
2016-Jun-21 18:34N 55°15' W 005°52'2019.6
2016-Jun-21 17:34N 54°57' W 005°38'1716.4
2016-Jun-21 16:33N 54°41' W 005°47'6 0.5
2016-Jun-21 04:10N 54°37' W 005°54'1 1.8
2016-Jun-21 03:33N 54°38' W 005°53'8 8.0
2016-Jun-21 02:33N 54°43' W 005°41'1111.1
2016-Jun-21 01:33N 54°40' W 005°23'1414.3
2016-Jun-21 00:33N 54°26' W 005°15'1413.8
2016-Jun-20 23:33N 54°12' W 005°14'1414.4
2016-Jun-20 22:34N 53°58' W 005°17'8319.5
2016-Jun-20 18:19N 52°36' W 005°34'1520.0
2016-Jun-20 17:33N 52°21' W 005°37'1918.7
2016-Jun-20 16:33N 52°02' W 005°42'1817.8
2016-Jun-20 15:33N 51°45' W 005°49'1527.3
2016-Jun-20 15:00N 51°30' W 005°54'2113.8 270 / 201013.510.8 0.516.014.315.0
2016-Jun-20 13:30N 51°09' W 005°53'1717.9
2016-Jun-20 12:32N 50°52' W 005°54'1818.1
2016-Jun-20 11:33N 50°34' W 005°53'1717.3
2016-Jun-20 10:34N 50°17' W 005°55'1817.4
2016-Jun-20 09:33N 49°60' W 005°54'1614.5
2016-Jun-20 08:28N 49°50' W 005°34'1516.0
2016-Jun-20 07:30N 49°51' W 005°11'1516.1
2016-Jun-20 06:33N 49°54' W 004°47'1212.0
2016-Jun-20 05:33N 49°57' W 004°29'1211.7
2016-Jun-20 04:33N 49°59' W 004°12'1212.1
2016-Jun-20 03:33N 50°02' W 003°53'1313.0
2016-Jun-20 02:33N 50°05' W 003°34'1414.0
2016-Jun-20 01:34N 50°08' W 003°12'1514.5
2016-Jun-20 00:33N 50°12' W 002°50'1414.3
2016-Jun-19 23:33N 50°16' W 002°29'1526.2
2016-Jun-19 23:00N 50°18' W 002°06'11 7.9 210 / 301019.1 5.4 14.014.014.0
2016-Jun-19 21:33N 50°23' W 001°50'1311.1
2016-Jun-19 20:23N 50°25' W 001°30'910.4
2016-Jun-19 19:33N 50°28' W 001°17'1010.2
2016-Jun-19 18:33N 50°34' W 001°04'9 8.7
2016-Jun-19 17:34N 50°42' W 000°58'1414.4
2016-Jun-19 16:34N 50°49' W 001°18'7 7.2
2016-Jun-19 15:33N 50°54' W 001°26'0 0.0
2016-Jun-19 14:33N 50°54' W 001°26'  

Dump ship's entire track history